createdAt,value
2018-10-17T00:02:19.610Z,101396.79
2018-10-17T00:04:47.829Z,101394.90
2018-10-17T00:07:16.077Z,101392.23
2018-10-17T00:09:44.191Z,101389.36
2018-10-17T00:12:12.382Z,101389.85
2018-10-17T00:14:40.687Z,101386.49
2018-10-17T00:17:09.488Z,101385.13
2018-10-17T00:19:37.842Z,101380.78
2018-10-17T00:22:06.187Z,101385.89
2018-10-17T00:24:34.362Z,101390.88
2018-10-17T00:27:02.548Z,101391.36
2018-10-17T00:29:30.719Z,101392.70
2018-10-17T00:31:58.943Z,101392.70
2018-10-17T00:34:27.151Z,101397.67
2018-10-17T00:36:55.346Z,101395.98
2018-10-17T00:39:23.519Z,101388.14
2018-10-17T00:41:51.734Z,101398.58
2018-10-17T00:44:19.986Z,101393.56
2018-10-17T00:46:48.190Z,101390.83
2018-10-17T00:49:16.435Z,101393.78
2018-10-17T00:51:44.582Z,101391.05
2018-10-17T00:54:12.830Z,101393.03
2018-10-17T00:56:41.025Z,101384.03
2018-10-17T00:59:10.527Z,101387.89
2018-10-17T01:01:39.178Z,101385.09
2018-10-17T01:04:07.613Z,101375.77
2018-10-17T01:06:36.207Z,101377.31
2018-10-17T01:09:06.958Z,101375.48
2018-10-17T01:11:35.743Z,101377.17
2018-10-17T01:14:04.210Z,101375.00
2018-10-17T01:16:32.606Z,101371.84
2018-10-17T01:19:01.170Z,101372.69
2018-10-17T01:21:29.431Z,101374.16
2018-10-17T01:23:57.615Z,101371.78
2018-10-17T01:26:25.869Z,101369.60
2018-10-17T01:28:54.009Z,101370.72
2018-10-17T01:31:22.242Z,101361.58
2018-10-17T01:33:50.415Z,101369.08
2018-10-17T01:36:18.654Z,101360.73
2018-10-17T01:38:46.839Z,101363.54
2018-10-17T01:41:15.030Z,101368.66
2018-10-17T01:43:43.216Z,101373.98
2018-10-17T01:46:11.361Z,101367.95
2018-10-17T01:48:39.611Z,101370.61
2018-10-17T01:51:07.798Z,101356.60
2018-10-17T01:53:35.978Z,101354.64
2018-10-17T01:56:04.225Z,101351.98
2018-10-17T01:58:32.526Z,101348.27
2018-10-17T02:01:00.806Z,101352.54
2018-10-17T02:03:28.990Z,101350.54
2018-10-17T02:05:57.258Z,101346.69
2018-10-17T02:08:25.473Z,101349.14
2018-10-17T02:10:53.716Z,101347.45
2018-10-17T02:13:22.590Z,101347.73
2018-10-17T02:15:52.618Z,101346.67
2018-10-17T02:18:20.955Z,101338.97
2018-10-17T02:20:49.619Z,101338.58
2018-10-17T02:23:17.829Z,101341.87
2018-10-17T02:25:45.985Z,101349.63
2018-10-17T02:28:14.218Z,101347.81
2018-10-17T02:30:42.465Z,101349.77
2018-10-17T02:33:10.643Z,101354.25
2018-10-17T02:35:38.802Z,101342.06
2018-10-17T02:38:07.039Z,101354.70
2018-10-17T02:40:35.268Z,101351.33
2018-10-17T02:43:03.669Z,101351.95
2018-10-17T02:45:31.877Z,101357.91
2018-10-17T02:48:00.072Z,101356.84
2018-10-17T02:50:28.268Z,101354.67
2018-10-17T02:52:56.553Z,101355.78
2018-10-17T02:55:24.696Z,101354.11
2018-10-17T02:57:53.007Z,101358.05
2018-10-17T03:00:21.170Z,101357.45
2018-10-17T03:02:49.436Z,101355.27
2018-10-17T03:05:17.861Z,101355.27
2018-10-17T03:07:45.940Z,101357.94
2018-10-17T03:10:14.138Z,101357.50
2018-10-17T03:12:42.295Z,101360.78
2018-10-17T03:15:10.515Z,101356.61
2018-10-17T03:17:38.710Z,101366.05
2018-10-17T03:20:08.349Z,101364.02
2018-10-17T03:22:36.531Z,101364.28
2018-10-17T03:25:04.993Z,101359.94
2018-10-17T03:27:33.166Z,101366.37
2018-10-17T03:30:01.359Z,101359.23
2018-10-17T03:32:29.546Z,101366.02
2018-10-17T03:34:57.808Z,101367.96
2018-10-17T03:37:25.923Z,101371.05
2018-10-17T03:39:54.109Z,101375.17
2018-10-17T03:42:22.278Z,101367.69
2018-10-17T03:44:50.471Z,101368.31
2018-10-17T03:47:18.770Z,101379.56
2018-10-17T03:49:46.835Z,101374.51
2018-10-17T03:52:14.952Z,101370.66
2018-10-17T03:54:43.198Z,101371.14
2018-10-17T03:57:11.390Z,101372.28
2018-10-17T03:59:39.784Z,101377.86
2018-10-17T04:02:07.788Z,101379.81
2018-10-17T04:04:35.985Z,101384.41
2018-10-17T04:07:04.242Z,101383.70
2018-10-17T04:09:32.395Z,101384.19
2018-10-17T04:12:00.551Z,101380.20
2018-10-17T04:14:28.724Z,101384.32
2018-10-17T04:16:56.914Z,101376.64
2018-10-17T04:19:25.134Z,101385.30
2018-10-17T04:21:53.327Z,101382.64
2018-10-17T04:24:21.587Z,101381.17
2018-10-17T04:26:49.819Z,101381.80
2018-10-17T04:29:17.998Z,101389.22
2018-10-17T04:31:46.188Z,101391.30
2018-10-17T04:34:14.394Z,101392.27
2018-10-17T04:36:42.567Z,101387.80
2018-10-17T04:39:11.935Z,101386.69
2018-10-17T04:41:40.642Z,101385.86
2018-10-17T04:44:09.943Z,101395.28
2018-10-17T04:46:38.127Z,101386.95
2018-10-17T04:49:06.942Z,101383.59
2018-10-17T04:51:35.274Z,101382.75
2018-10-17T04:54:03.494Z,101383.59
2018-10-17T04:56:31.694Z,101383.72
2018-10-17T04:58:59.983Z,101382.87
2018-10-17T05:01:34.571Z,101377.56
2018-10-17T05:04:02.901Z,101376.11
2018-10-17T05:06:31.113Z,101378.02
2018-10-17T05:08:59.312Z,101379.92
2018-10-17T05:11:27.480Z,101380.63
2018-10-17T05:13:55.645Z,101377.48
2018-10-17T05:16:24.175Z,101385.78
2018-10-17T05:18:52.437Z,101381.47
2018-10-17T05:21:20.660Z,101381.80
2018-10-17T05:23:48.848Z,101380.69
2018-10-17T05:26:17.048Z,101380.56
2018-10-17T05:28:45.290Z,101389.11
2018-10-17T05:31:13.565Z,101388.40
2018-10-17T05:33:41.675Z,101389.86
2018-10-17T05:36:10.168Z,101393.14
2018-10-17T05:38:38.397Z,101389.15
2018-10-17T05:41:06.679Z,101387.82
2018-10-17T05:43:34.795Z,101389.50
2018-10-17T05:46:03.002Z,101390.22
2018-10-17T05:48:31.180Z,101387.56
2018-10-17T05:50:59.429Z,101387.91
2018-10-17T05:53:27.648Z,101389.24
2018-10-17T05:55:55.858Z,101392.52
2018-10-17T05:58:24.055Z,101389.86
2018-10-17T06:00:52.252Z,101391.32
2018-10-17T06:03:20.448Z,101399.16
2018-10-17T06:05:48.651Z,101403.50
2018-10-17T06:08:16.862Z,101408.81
2018-10-17T06:10:45.064Z,101409.30
2018-10-17T06:13:13.301Z,101417.27
2018-10-17T06:15:41.522Z,101426.44
2018-10-17T06:18:09.747Z,101427.77
2018-10-17T06:20:38.460Z,101429.45
2018-10-17T06:23:06.875Z,101433.31
2018-10-17T06:25:35.302Z,101446.47
2018-10-17T06:28:03.463Z,101446.83
2018-10-17T06:30:31.694Z,101433.77
2018-10-17T06:32:59.973Z,101430.45
2018-10-17T06:35:28.162Z,101432.00
2018-10-17T06:37:56.376Z,101434.89
2018-10-17T06:40:24.536Z,101446.49
2018-10-17T06:42:52.775Z,101444.72
2018-10-17T06:45:21.016Z,101438.07
2018-10-17T06:47:49.215Z,101434.92
2018-10-17T06:50:17.418Z,101443.55
2018-10-17T06:52:45.626Z,101441.73
2018-10-17T06:55:13.929Z,101445.36
2018-10-17T06:57:42.067Z,101443.19
2018-10-17T07:00:11.007Z,101439.27
2018-10-17T07:02:39.291Z,101436.34
2018-10-17T07:05:08.272Z,101441.40
2018-10-17T07:07:36.460Z,101438.83
2018-10-17T07:10:04.743Z,101439.55
2018-10-17T07:12:32.971Z,101446.19
2018-10-17T07:15:01.194Z,101443.89
2018-10-17T07:17:30.222Z,101438.57
2018-10-17T07:19:58.384Z,101442.75
2018-10-17T07:22:26.551Z,101441.29
2018-10-17T07:24:54.836Z,101442.35
2018-10-17T07:27:23.058Z,101443.55
2018-10-17T07:29:51.510Z,101450.42
2018-10-17T07:32:19.514Z,101447.14
2018-10-17T07:34:47.691Z,101448.17
2018-10-17T07:37:15.914Z,101453.71
2018-10-17T07:39:44.103Z,101446.58
2018-10-17T07:42:12.493Z,101454.28
2018-10-17T07:44:40.614Z,101451.98
2018-10-17T07:47:08.810Z,101451.36
2018-10-17T07:49:37.115Z,101455.83
2018-10-17T07:52:05.755Z,101463.86
2018-10-17T07:54:33.954Z,101459.59
2018-10-17T07:57:02.160Z,101462.70
2018-10-17T07:59:30.380Z,101460.39
2018-10-17T08:01:58.565Z,101458.27
2018-10-17T08:04:26.730Z,101454.37
2018-10-17T08:06:54.967Z,101462.92
2018-10-17T08:09:23.229Z,101459.37
2018-10-17T08:11:51.658Z,101457.11
2018-10-17T08:14:20.281Z,101460.69
2018-10-17T08:16:48.765Z,101464.41
2018-10-17T08:19:17.059Z,101458.81
2018-10-17T08:21:45.653Z,101451.86
2018-10-17T08:24:13.917Z,101447.10
2018-10-17T08:26:42.511Z,101452.50
2018-10-17T08:29:10.856Z,101458.88
2018-10-17T08:31:39.072Z,101455.42
2018-10-17T08:34:07.338Z,101456.48
2018-10-17T08:36:35.700Z,101458.38
2018-10-17T08:39:05.472Z,101461.25
2018-10-17T08:41:33.650Z,101457.69
2018-10-17T08:44:01.896Z,101451.56
2018-10-17T08:46:30.103Z,101451.98
2018-10-17T08:48:58.271Z,101449.88
2018-10-17T08:51:26.428Z,101443.75
2018-10-17T08:53:54.659Z,101447.61
2018-10-17T08:56:22.860Z,101451.53
2018-10-17T08:58:51.898Z,101448.45
2018-10-17T09:01:20.073Z,101451.19
2018-10-17T09:03:48.246Z,101449.78
2018-10-17T09:06:22.699Z,101452.52
2018-10-17T09:08:50.947Z,101450.23
2018-10-17T09:11:19.131Z,101454.64
2018-10-17T09:13:47.336Z,101462.70
2018-10-17T09:16:15.589Z,101456.95
2018-10-17T09:18:43.787Z,101462.17
2018-10-17T09:21:12.147Z,101460.27
2018-10-17T09:23:40.386Z,101462.50
2018-10-17T09:26:08.575Z,101460.42
2018-10-17T09:28:37.189Z,101456.83
2018-10-17T09:31:05.883Z,101461.26
2018-10-17T09:33:34.796Z,101457.40
2018-10-17T09:36:03.226Z,101464.05
2018-10-17T09:38:32.606Z,101456.73
2018-10-17T09:41:01.215Z,101462.14
2018-10-17T09:43:29.457Z,101463.58
2018-10-17T09:45:58.047Z,101468.48
2018-10-17T09:48:26.638Z,101470.23
2018-10-17T09:50:54.912Z,101462.16
2018-10-17T09:53:23.095Z,101464.09
2018-10-17T09:55:51.399Z,101463.49
2018-10-17T09:58:20.025Z,101466.78
2018-10-17T10:00:53.461Z,101465.84
2018-10-17T10:03:21.828Z,101462.73
2018-10-17T10:05:50.087Z,101462.50
2018-10-17T10:08:18.256Z,101456.04
2018-10-17T10:10:46.434Z,101455.42
2018-10-17T10:13:14.614Z,101459.83
2018-10-17T10:15:42.791Z,101453.03
2018-10-17T10:18:11.259Z,101446.86
2018-10-17T10:20:39.451Z,101453.44
2018-10-17T10:23:07.778Z,101444.43
2018-10-17T10:25:35.875Z,101454.20
2018-10-17T10:28:04.362Z,101447.70
2018-10-17T10:30:32.515Z,101450.22
2018-10-17T10:33:00.692Z,101448.08
2018-10-17T10:35:28.955Z,101443.39
2018-10-17T10:37:57.585Z,101450.42
2018-10-17T10:40:25.801Z,101442.74
2018-10-17T10:42:54.036Z,101446.42
2018-10-17T10:45:22.319Z,101442.08
2018-10-17T10:47:50.423Z,101441.42
2018-10-17T10:50:18.720Z,101440.23
2018-10-17T10:52:46.840Z,101436.72
2018-10-17T10:55:15.191Z,101426.13
2018-10-17T10:57:43.678Z,101423.58
2018-10-17T11:00:12.720Z,101422.73
2018-10-17T11:02:40.912Z,101420.84
2018-10-17T11:05:09.160Z,101408.59
2018-10-17T11:07:37.310Z,101408.37
2018-10-17T11:10:05.598Z,101408.36
2018-10-17T11:12:33.891Z,101409.05
2018-10-17T11:15:02.283Z,101402.02
2018-10-17T11:17:30.515Z,101400.98
2018-10-17T11:20:00.439Z,101397.14
2018-10-17T11:22:28.775Z,101397.19
2018-10-17T11:24:57.100Z,101396.57
2018-10-17T11:27:25.412Z,101394.08
2018-10-17T11:29:53.914Z,101391.10
2018-10-17T11:32:22.124Z,101398.84
2018-10-17T11:34:50.307Z,101395.33
2018-10-17T11:37:18.509Z,101397.03
2018-10-17T11:39:46.852Z,101391.67
2018-10-17T11:42:15.044Z,101395.66
2018-10-17T11:44:43.275Z,101393.50
2018-10-17T11:47:11.549Z,101390.32
2018-10-17T11:49:39.712Z,101390.81
2018-10-17T11:52:07.915Z,101387.13
2018-10-17T11:54:36.121Z,101383.45
2018-10-17T11:57:04.628Z,101381.11
2018-10-17T11:59:32.798Z,101375.08
2018-10-17T12:02:00.956Z,101379.77
2018-10-17T12:04:29.387Z,101375.75
2018-10-17T12:06:57.353Z,101379.44
2018-10-17T12:09:25.532Z,101372.07
2018-10-17T12:11:53.749Z,101367.05
2018-10-17T12:14:21.921Z,101366.38
2018-10-17T12:16:50.187Z,101359.31
2018-10-17T12:19:18.542Z,101363.36
2018-10-17T12:21:46.637Z,101354.65
2018-10-17T12:24:14.927Z,101358.00
2018-10-17T12:26:43.125Z,101349.26
2018-10-17T12:29:11.342Z,101344.23
2018-10-17T12:31:39.541Z,101349.58
2018-10-17T12:34:08.030Z,101347.86
2018-10-17T12:36:36.231Z,101345.84
2018-10-17T12:39:06.821Z,101349.83
2018-10-17T12:41:35.066Z,101345.80
2018-10-17T12:44:04.549Z,101342.93
2018-10-17T12:46:32.707Z,101342.38
2018-10-17T12:49:01.016Z,101343.38
2018-10-17T12:51:29.203Z,101343.53
2018-10-17T12:53:57.384Z,101341.34
2018-10-17T12:56:25.611Z,101346.00
2018-10-17T12:58:53.849Z,101346.33
2018-10-17T13:01:22.051Z,101344.31
2018-10-17T13:03:50.235Z,101343.02
2018-10-17T13:06:18.477Z,101340.97
2018-10-17T13:08:46.677Z,101342.30
2018-10-17T13:11:15.032Z,101345.32
2018-10-17T13:13:43.415Z,101338.11
2018-10-17T13:16:11.910Z,101343.48
2018-10-17T13:18:40.226Z,101332.56
2018-10-17T13:21:08.783Z,101333.56
2018-10-17T13:23:36.968Z,101329.19
2018-10-17T13:26:06.738Z,101325.36
2018-10-17T13:28:35.123Z,101328.16
2018-10-17T13:31:03.976Z,101320.95
2018-10-17T13:33:32.122Z,101319.31
2018-10-17T13:36:00.284Z,101317.12
2018-10-17T13:38:28.556Z,101317.43
2018-10-17T13:40:56.806Z,101320.83
2018-10-17T13:43:25.104Z,101320.49
2018-10-17T13:45:53.349Z,101320.16
2018-10-17T13:48:21.527Z,101319.48
2018-10-17T13:50:49.882Z,101318.42
2018-10-17T13:53:18.175Z,101318.16
2018-10-17T13:55:46.299Z,101318.30
2018-10-17T13:58:14.605Z,101313.59
2018-10-17T14:00:42.750Z,101313.91
2018-10-17T14:03:10.973Z,101313.73
2018-10-17T14:05:39.248Z,101307.86
2018-10-17T14:08:07.555Z,101310.39
2018-10-17T14:10:35.763Z,101309.25
2018-10-17T14:13:03.960Z,101307.59
2018-10-17T14:15:32.155Z,101306.81
2018-10-17T14:18:00.438Z,101307.83
2018-10-17T14:20:28.731Z,101306.98
2018-10-17T14:22:56.935Z,101305.31
2018-10-17T14:25:25.399Z,101302.45
2018-10-17T14:27:53.600Z,101300.10
2018-10-17T14:30:21.827Z,101304.64
2018-10-17T14:32:49.994Z,101301.63
2018-10-17T14:35:18.243Z,101300.61
2018-10-17T14:37:46.495Z,101300.28
2018-10-17T14:40:14.766Z,101293.74
2018-10-17T14:42:42.973Z,101296.93
2018-10-17T14:45:11.585Z,101296.27
2018-10-17T14:47:40.339Z,101292.42
2018-10-17T14:50:08.599Z,101301.33
2018-10-17T14:52:37.131Z,101305.73
2018-10-17T14:55:05.896Z,101303.03
2018-10-17T14:57:34.126Z,101302.72
2018-10-17T15:00:02.380Z,101302.94
2018-10-17T15:02:30.702Z,101302.45
2018-10-17T15:04:58.967Z,101305.32
2018-10-17T15:07:27.117Z,101300.30
2018-10-17T15:09:55.336Z,101302.19
2018-10-17T15:12:23.527Z,101301.37
2018-10-17T15:14:51.756Z,101304.94
2018-10-17T15:17:19.947Z,101303.61
2018-10-17T15:19:48.126Z,101303.79
2018-10-17T15:22:16.364Z,101308.33
2018-10-17T15:24:44.748Z,101310.54
2018-10-17T15:27:13.263Z,101309.20
2018-10-17T15:29:41.464Z,101309.55
2018-10-17T15:32:09.669Z,101311.39
2018-10-17T15:34:37.894Z,101304.39
2018-10-17T15:37:06.293Z,101314.45
2018-10-17T15:39:34.387Z,101311.27
2018-10-17T15:42:02.604Z,101317.80
2018-10-17T15:44:30.891Z,101318.44
2018-10-17T15:47:01.367Z,101313.11
2018-10-17T15:49:29.748Z,101314.13
2018-10-17T15:51:57.939Z,101319.48
2018-10-17T15:54:26.188Z,101321.36
2018-10-17T15:56:55.104Z,101319.51
2018-10-17T15:59:23.770Z,101320.17
2018-10-17T16:01:51.992Z,101318.84
2018-10-17T16:04:20.214Z,101322.35
2018-10-17T16:06:49.021Z,101322.55
2018-10-17T16:09:17.262Z,101329.06
2018-10-17T16:11:45.549Z,101325.23
2018-10-17T16:14:13.759Z,101329.91
2018-10-17T16:16:41.851Z,101332.94
2018-10-17T16:19:10.151Z,101337.95
2018-10-17T16:21:38.362Z,101337.26
2018-10-17T16:24:06.660Z,101343.63
2018-10-17T16:26:34.815Z,101339.73
2018-10-17T16:29:02.975Z,101341.72
2018-10-17T16:31:31.203Z,101344.91
2018-10-17T16:33:59.417Z,101350.25
2018-10-17T16:36:27.602Z,101351.56
2018-10-17T16:38:55.747Z,101355.56
2018-10-17T16:41:24.029Z,101354.89
2018-10-17T16:43:52.166Z,101355.22
2018-10-17T16:46:20.317Z,101360.20
2018-10-17T16:48:48.498Z,101362.89
2018-10-17T16:51:16.753Z,101364.20
2018-10-17T16:53:44.978Z,101366.52
2018-10-17T16:56:13.256Z,101366.49
2018-10-17T16:58:41.536Z,101367.99
2018-10-17T17:01:09.673Z,101369.14
2018-10-17T17:03:37.878Z,101372.45
2018-10-17T17:06:06.308Z,101371.11
2018-10-17T17:08:34.499Z,101370.74
2018-10-17T17:11:02.752Z,101381.75
2018-10-17T17:13:30.972Z,101386.26
2018-10-17T17:15:59.135Z,101383.55
2018-10-17T17:18:27.311Z,101388.98
2018-10-17T17:20:55.578Z,101387.28
2018-10-17T17:23:24.808Z,101387.27
2018-10-17T17:25:53.013Z,101392.92
2018-10-17T17:28:21.232Z,101392.23
2018-10-17T17:30:49.404Z,101394.72
2018-10-17T17:33:17.673Z,101397.55
2018-10-17T17:35:45.853Z,101405.06
2018-10-17T17:38:14.047Z,101401.20
2018-10-17T17:40:42.231Z,101399.68
2018-10-17T17:43:10.471Z,101405.17
2018-10-17T17:45:38.656Z,101401.81
2018-10-17T17:48:07.275Z,101407.80
2018-10-17T17:50:35.458Z,101415.97
2018-10-17T17:53:03.632Z,101416.45
2018-10-17T17:55:31.824Z,101420.27
2018-10-17T17:58:00.106Z,101421.75
2018-10-17T18:00:28.223Z,101421.41
2018-10-17T18:02:56.458Z,101427.89
2018-10-17T18:05:24.682Z,101427.20
2018-10-17T18:07:52.834Z,101434.36
2018-10-17T18:10:21.068Z,101432.48
2018-10-17T18:12:49.319Z,101433.78
2018-10-17T18:15:17.573Z,101429.23
2018-10-17T18:17:45.810Z,101423.87
2018-10-17T18:20:14.324Z,101429.02
2018-10-17T18:22:42.613Z,101434.16
2018-10-17T18:25:10.998Z,101434.80
2018-10-17T18:27:39.893Z,101438.81
2018-10-17T18:30:08.086Z,101441.33
2018-10-17T18:32:36.568Z,101446.82
2018-10-17T18:35:05.543Z,101447.66
2018-10-17T18:37:33.756Z,101453.14
2018-10-17T18:40:01.962Z,101452.95
2018-10-17T18:42:30.319Z,101455.42
2018-10-17T18:44:58.486Z,101458.76
2018-10-17T18:47:26.712Z,101458.06
2018-10-17T18:49:54.931Z,101468.39
2018-10-17T18:52:23.416Z,101465.03
2018-10-17T18:54:51.587Z,101472.05
2018-10-17T18:57:19.808Z,101476.41
2018-10-17T18:59:48.038Z,101473.23
2018-10-17T19:02:16.408Z,101477.44
2018-10-17T19:04:44.941Z,101470.59
2018-10-17T19:07:13.220Z,101480.77
2018-10-17T19:09:41.388Z,101478.59
2018-10-17T19:12:09.580Z,101476.42
2018-10-17T19:14:37.739Z,101478.92
2018-10-17T19:17:06.117Z,101480.75
2018-10-17T19:19:34.350Z,101483.07
2018-10-17T19:22:02.573Z,101484.90
2018-10-17T19:24:30.751Z,101488.06
2018-10-17T19:26:58.949Z,101492.70
2018-10-17T19:29:33.233Z,101498.05
2018-10-17T19:32:02.562Z,101495.52
2018-10-17T19:34:30.751Z,101498.53
2018-10-17T19:36:58.928Z,101496.36
2018-10-17T19:39:27.118Z,101501.70
2018-10-17T19:41:55.437Z,101503.53
2018-10-17T19:44:23.567Z,101500.97
2018-10-17T19:46:51.772Z,101503.64
2018-10-17T19:49:19.962Z,101498.45
2018-10-17T19:51:48.238Z,101496.27
2018-10-17T19:54:17.242Z,101498.94
2018-10-17T19:56:45.456Z,101505.61
2018-10-17T19:59:13.651Z,101513.97
2018-10-17T20:01:41.837Z,101506.59
2018-10-17T20:04:10.021Z,101508.92
2018-10-17T20:06:38.218Z,101512.58
2018-10-17T20:09:08.722Z,101512.92
2018-10-17T20:11:36.933Z,101510.40
2018-10-17T20:14:05.272Z,101507.41
2018-10-17T20:16:33.435Z,101511.56
2018-10-17T20:19:01.629Z,101510.87
2018-10-17T20:21:29.823Z,101519.36
2018-10-17T20:23:58.200Z,101523.16
2018-10-17T20:26:26.458Z,101524.64
2018-10-17T20:28:54.695Z,101527.31
2018-10-17T20:31:22.918Z,101530.47
2018-10-17T20:33:51.090Z,101530.12
2018-10-17T20:36:19.411Z,101526.47
2018-10-17T20:38:47.704Z,101524.78
2018-10-17T20:41:15.918Z,101527.45
2018-10-17T20:43:44.139Z,101522.75
2018-10-17T20:46:12.312Z,101538.41
2018-10-17T20:48:40.499Z,101529.39
2018-10-17T20:51:08.759Z,101536.06
2018-10-17T20:53:36.938Z,101525.05
2018-10-17T20:56:05.245Z,101530.88
2018-10-17T20:58:33.396Z,101535.36
2018-10-17T21:01:01.645Z,101531.50
2018-10-17T21:03:29.782Z,101538.31
2018-10-17T21:05:57.984Z,101539.30
2018-10-17T21:08:26.185Z,101538.95
2018-10-17T21:10:54.374Z,101547.94
2018-10-17T21:13:22.572Z,101550.75
2018-10-17T21:15:50.748Z,101550.89
2018-10-17T21:18:18.977Z,101550.19
2018-10-17T21:20:47.832Z,101553.35
2018-10-17T21:23:15.986Z,101547.20
2018-10-17T21:25:44.310Z,101546.36
2018-10-17T21:28:12.538Z,101542.51
2018-10-17T21:30:40.755Z,101546.30
2018-10-17T21:33:08.937Z,101548.62
2018-10-17T21:35:37.099Z,101544.62
2018-10-17T21:38:05.320Z,101548.76
2018-10-17T21:40:33.476Z,101546.23
2018-10-17T21:43:01.675Z,101546.03
2018-10-17T21:45:29.845Z,101553.67
2018-10-17T21:47:58.010Z,101555.64
2018-10-17T21:50:26.211Z,101555.81
2018-10-17T21:52:54.390Z,101553.98
2018-10-17T21:55:24.159Z,101554.30
2018-10-17T21:57:52.515Z,101554.30
2018-10-17T22:00:21.705Z,101555.81
2018-10-17T22:02:50.223Z,101549.15
2018-10-17T22:05:18.683Z,101552.31
2018-10-17T22:07:47.156Z,101546.27
2018-10-17T22:10:15.348Z,101551.81
2018-10-17T22:12:43.510Z,101548.94
2018-10-17T22:15:12.279Z,101554.97
2018-10-17T22:17:40.478Z,101551.47
2018-10-17T22:20:08.775Z,101551.95
2018-10-17T22:22:37.011Z,101554.77
2018-10-17T22:25:06.037Z,101549.92
2018-10-17T22:27:34.363Z,101555.89
2018-10-17T22:30:02.598Z,101561.70
2018-10-17T22:32:30.754Z,101565.50
2018-10-17T22:34:58.902Z,101565.64
2018-10-17T22:37:27.122Z,101559.75
2018-10-17T22:39:55.726Z,101564.23
2018-10-17T22:42:24.372Z,101565.73
2018-10-17T22:44:52.677Z,101563.70
2018-10-17T22:47:20.869Z,101568.05
2018-10-17T22:49:49.364Z,101573.03
2018-10-17T22:52:17.536Z,101569.39
2018-10-17T22:54:45.719Z,101574.72
2018-10-17T22:57:14.191Z,101570.02
2018-10-17T22:59:42.487Z,101570.64
2018-10-17T23:02:10.910Z,101575.77
2018-10-17T23:04:39.095Z,101578.57
2018-10-17T23:07:07.360Z,101575.70
2018-10-17T23:09:36.537Z,101573.34
2018-10-17T23:12:05.236Z,101574.45
2018-10-17T23:14:33.656Z,101580.41
2018-10-17T23:17:02.048Z,101578.38
2018-10-17T23:19:30.484Z,101571.72
2018-10-17T23:21:58.704Z,101568.84
2018-10-17T23:24:26.863Z,101574.31
2018-10-17T23:26:55.024Z,101573.60
2018-10-17T23:29:23.187Z,101569.61
2018-10-17T23:31:51.399Z,101577.25
2018-10-17T23:34:19.572Z,101578.75
2018-10-17T23:36:47.847Z,101577.17
2018-10-17T23:39:16.008Z,101580.11
2018-10-17T23:41:44.178Z,101575.27
2018-10-17T23:44:12.396Z,101575.41
2018-10-17T23:46:40.538Z,101579.41
2018-10-17T23:49:08.705Z,101585.36
2018-10-17T23:51:36.906Z,101581.01
2018-10-17T23:54:05.174Z,101582.13
2018-10-17T23:56:33.334Z,101584.60
2018-10-17T23:59:01.555Z,101583.68
